createdAt,value
2022-08-26T00:00:52.015Z,18.41
2022-08-26T00:03:21.444Z,18.31
2022-08-26T00:05:51.182Z,18.37
2022-08-26T00:08:22.674Z,18.15
2022-08-26T00:10:52.830Z,18.18
2022-08-26T00:13:21.433Z,18.05
2022-08-26T00:15:51.498Z,17.89
2022-08-26T00:18:22.618Z,17.99
2022-08-26T00:20:51.948Z,17.94
2022-08-26T00:23:20.684Z,17.90
2022-08-26T00:25:54.952Z,18.07
2022-08-26T00:28:25.716Z,18.16
2022-08-26T00:30:55.386Z,18.03
2022-08-26T00:33:24.794Z,18.08
2022-08-26T00:35:53.679Z,17.88
2022-08-26T00:38:23.118Z,17.97
2022-08-26T00:40:56.598Z,18.01
2022-08-26T00:43:26.370Z,17.98
2022-08-26T00:45:59.319Z,17.96
2022-08-26T00:48:31.942Z,17.99
2022-08-26T00:51:05.399Z,17.98
2022-08-26T00:53:41.471Z,17.95
2022-08-26T00:56:17.520Z,17.94
2022-08-26T00:58:48.228Z,17.80
2022-08-26T01:01:18.428Z,17.88
2022-08-26T01:03:51.740Z,17.88
2022-08-26T01:06:21.120Z,17.79
2022-08-26T01:08:50.057Z,17.70
2022-08-26T01:11:20.252Z,17.67
2022-08-26T01:13:50.077Z,17.82
2022-08-26T01:16:18.839Z,17.77
2022-08-26T01:18:49.928Z,17.71
2022-08-26T01:21:27.469Z,17.68
2022-08-26T01:24:00.994Z,17.71
2022-08-26T01:26:34.056Z,17.65
2022-08-26T01:29:06.630Z,17.63
2022-08-26T01:31:41.937Z,17.72
2022-08-26T01:34:17.743Z,17.77
2022-08-26T01:36:51.418Z,17.71
2022-08-26T01:39:21.948Z,17.65
2022-08-26T01:41:53.530Z,17.76
2022-08-26T01:44:26.955Z,17.79
2022-08-26T01:46:58.553Z,17.76
2022-08-26T01:49:29.094Z,17.81
2022-08-26T01:52:02.287Z,17.69
2022-08-26T01:54:33.907Z,17.80
2022-08-26T01:57:02.671Z,17.67
2022-08-26T01:59:32.281Z,17.42
2022-08-26T02:02:00.962Z,17.59
2022-08-26T02:04:33.674Z,17.59
2022-08-26T02:07:06.179Z,17.67
2022-08-26T02:09:41.323Z,17.76
2022-08-26T02:12:12.170Z,17.64
2022-08-26T02:14:44.500Z,17.55
2022-08-26T02:17:13.756Z,17.55
2022-08-26T02:19:46.793Z,17.47
2022-08-26T02:22:18.451Z,17.51
2022-08-26T02:24:50.515Z,17.46
2022-08-26T02:27:23.886Z,17.36
2022-08-26T02:29:55.176Z,17.46
2022-08-26T02:32:24.001Z,17.37
2022-08-26T02:34:53.044Z,17.37
2022-08-26T02:37:22.979Z,17.33
2022-08-26T02:39:53.137Z,17.26
2022-08-26T02:42:22.127Z,17.25
2022-08-26T02:44:51.431Z,17.11
2022-08-26T02:47:20.210Z,17.16
2022-08-26T02:49:53.634Z,17.09
2022-08-26T02:52:22.334Z,17.12
2022-08-26T02:54:52.633Z,17.04
2022-08-26T02:57:21.315Z,17.02
2022-08-26T02:59:50.989Z,16.95
2022-08-26T03:02:19.853Z,16.95
2022-08-26T03:04:57.328Z,16.89
2022-08-26T03:07:29.481Z,16.82
2022-08-26T03:10:00.981Z,16.90
2022-08-26T03:12:29.899Z,16.97
2022-08-26T03:14:58.524Z,16.98
2022-08-26T03:17:27.362Z,16.87
2022-08-26T03:19:57.355Z,16.84
2022-08-26T03:22:27.121Z,16.81
2022-08-26T03:24:56.142Z,16.71
2022-08-26T03:27:26.343Z,16.76
2022-08-26T03:30:14.239Z,16.73
2022-08-26T03:32:44.389Z,16.67
2022-08-26T03:35:13.786Z,16.68
2022-08-26T03:37:42.940Z,16.73
2022-08-26T03:40:13.076Z,16.76
2022-08-26T03:42:45.388Z,16.58
2022-08-26T03:45:16.219Z,16.64
2022-08-26T03:47:45.785Z,16.55
2022-08-26T03:50:17.861Z,16.59
2022-08-26T03:52:52.483Z,16.65
2022-08-26T03:55:23.666Z,16.67
2022-08-26T03:57:54.482Z,16.63
2022-08-26T04:00:24.425Z,16.39
2022-08-26T04:02:53.551Z,16.52
2022-08-26T04:05:23.851Z,16.45
2022-08-26T04:07:53.020Z,16.40
2022-08-26T04:10:29.126Z,16.51
2022-08-26T04:12:59.997Z,16.48
2022-08-26T04:15:29.221Z,16.43
2022-08-26T04:17:58.526Z,16.52
2022-08-26T04:20:27.520Z,16.51
2022-08-26T04:22:57.036Z,16.34
2022-08-26T04:25:25.984Z,16.37
2022-08-26T04:27:55.123Z,16.29
2022-08-26T04:30:25.344Z,16.25
2022-08-26T04:32:54.429Z,16.19
2022-08-26T04:35:25.935Z,16.29
2022-08-26T04:37:55.905Z,16.39
2022-08-26T04:40:27.767Z,16.37
2022-08-26T04:42:57.105Z,16.22
2022-08-26T04:45:27.948Z,16.21
2022-08-26T04:47:57.801Z,16.38
2022-08-26T04:50:27.341Z,16.32
2022-08-26T04:52:56.844Z,16.24
2022-08-26T04:55:38.133Z,16.28
2022-08-26T04:58:10.154Z,16.31
2022-08-26T05:00:40.871Z,16.23
2022-08-26T05:03:09.664Z,16.43
2022-08-26T05:05:41.627Z,16.53
2022-08-26T05:08:11.497Z,16.65
2022-08-26T05:10:44.403Z,16.68
2022-08-26T05:13:15.460Z,16.65
2022-08-26T05:15:47.153Z,16.75
2022-08-26T05:18:17.477Z,16.79
2022-08-26T05:20:51.664Z,16.83
2022-08-26T05:23:24.576Z,16.62
2022-08-26T05:25:59.382Z,16.68
2022-08-26T05:28:30.748Z,16.51
2022-08-26T05:31:01.018Z,16.63
2022-08-26T05:33:30.792Z,16.66
2022-08-26T05:35:59.341Z,16.73
2022-08-26T05:38:30.359Z,16.69
2022-08-26T05:40:59.428Z,16.60
2022-08-26T05:43:28.551Z,16.74
2022-08-26T05:45:57.752Z,16.81
2022-08-26T05:48:27.844Z,16.82
2022-08-26T05:50:56.887Z,17.02
2022-08-26T05:53:26.194Z,17.07
2022-08-26T05:55:56.513Z,17.07
2022-08-26T05:58:28.400Z,17.01
2022-08-26T06:01:03.053Z,17.13
2022-08-26T06:03:36.104Z,17.09
2022-08-26T06:06:06.951Z,17.14
2022-08-26T06:08:36.438Z,17.13
2022-08-26T06:11:07.778Z,17.12
2022-08-26T06:13:47.957Z,17.31
2022-08-26T06:16:19.699Z,17.28
2022-08-26T06:18:51.617Z,17.34
2022-08-26T06:21:22.539Z,17.41
2022-08-26T06:24:12.099Z,17.28
2022-08-26T06:26:42.650Z,17.31
2022-08-26T06:29:11.661Z,17.46
2022-08-26T06:31:45.566Z,17.58
2022-08-26T06:34:16.108Z,17.64
2022-08-26T06:36:47.477Z,17.85
2022-08-26T06:39:18.607Z,17.80
2022-08-26T06:41:49.410Z,17.79
2022-08-26T06:44:20.976Z,17.78
2022-08-26T06:46:50.269Z,17.87
2022-08-26T06:49:26.827Z,17.97
2022-08-26T06:51:58.699Z,18.18
2022-08-26T06:54:28.585Z,18.21
2022-08-26T06:56:57.768Z,18.20
2022-08-26T06:59:27.561Z,18.21
2022-08-26T07:01:56.598Z,18.17
2022-08-26T07:04:28.126Z,18.30
2022-08-26T07:06:58.303Z,18.32
2022-08-26T07:09:29.493Z,18.52
2022-08-26T07:11:58.383Z,18.47
2022-08-26T07:14:27.856Z,18.44
2022-08-26T07:16:56.819Z,18.42
2022-08-26T07:19:30.354Z,18.57
2022-08-26T07:22:02.226Z,18.55
2022-08-26T07:24:32.563Z,18.50
2022-08-26T07:27:02.715Z,18.57
2022-08-26T07:29:32.555Z,18.47
2022-08-26T07:32:01.549Z,18.44
2022-08-26T07:34:33.104Z,18.36
2022-08-26T07:37:02.879Z,18.45
2022-08-26T07:39:32.865Z,18.51
2022-08-26T07:42:07.273Z,18.43
2022-08-26T07:44:37.092Z,18.40
2022-08-26T07:47:10.062Z,18.54
2022-08-26T07:49:56.342Z,18.67
2022-08-26T07:52:27.364Z,18.63
2022-08-26T07:54:58.376Z,18.82
2022-08-26T07:57:27.567Z,18.80
2022-08-26T07:59:56.983Z,19.00
2022-08-26T08:02:27.124Z,19.07
2022-08-26T08:04:58.294Z,19.03
2022-08-26T08:07:44.541Z,19.17
2022-08-26T08:10:18.690Z,19.18
2022-08-26T08:12:49.955Z,19.06
2022-08-26T08:15:20.429Z,19.15
2022-08-26T08:17:50.446Z,19.26
2022-08-26T08:20:23.477Z,19.19
2022-08-26T08:22:53.348Z,19.06
2022-08-26T08:25:23.467Z,19.18
2022-08-26T08:27:52.346Z,19.11
2022-08-26T08:30:23.455Z,19.15
2022-08-26T08:32:52.889Z,19.09
2022-08-26T08:35:24.417Z,19.14
2022-08-26T08:37:56.690Z,19.06
2022-08-26T08:40:28.078Z,19.16
2022-08-26T08:43:01.157Z,19.18
2022-08-26T08:45:37.246Z,19.06
2022-08-26T08:48:11.928Z,18.99
2022-08-26T08:50:46.989Z,18.87
2022-08-26T08:53:22.870Z,18.91
2022-08-26T08:56:09.390Z,18.87
2022-08-26T08:58:50.798Z,18.77
2022-08-26T09:01:35.668Z,18.83
2022-08-26T09:04:21.366Z,18.83
2022-08-26T09:06:55.527Z,18.92
2022-08-26T09:09:32.257Z,18.85
2022-08-26T09:12:03.212Z,18.80
2022-08-26T09:14:33.367Z,18.91
2022-08-26T09:17:10.154Z,18.85
2022-08-26T09:19:44.741Z,18.82
2022-08-26T09:22:29.686Z,18.94
2022-08-26T09:24:58.501Z,18.94
2022-08-26T09:27:43.027Z,18.97
2022-08-26T09:30:15.150Z,19.09
2022-08-26T09:32:44.708Z,19.10
2022-08-26T09:35:27.952Z,19.07
2022-08-26T09:37:59.650Z,19.12
2022-08-26T09:40:34.878Z,18.95
2022-08-26T09:43:16.080Z,18.84
2022-08-26T09:45:58.479Z,18.72
2022-08-26T09:48:31.945Z,18.75
2022-08-26T09:51:06.118Z,18.87
2022-08-26T09:53:51.619Z,18.90
2022-08-26T09:56:30.476Z,19.03
2022-08-26T09:59:00.497Z,19.03
2022-08-26T10:01:36.830Z,19.04
2022-08-26T10:04:09.989Z,19.03
2022-08-26T10:06:42.838Z,19.07
2022-08-26T10:09:19.484Z,19.28
2022-08-26T10:11:51.573Z,19.31
2022-08-26T10:14:25.821Z,19.36
2022-08-26T10:17:01.021Z,19.51
2022-08-26T10:19:56.074Z,19.54
2022-08-26T10:22:31.745Z,19.79
2022-08-26T10:25:05.275Z,19.81
2022-08-26T10:27:51.249Z,19.85
2022-08-26T10:30:25.343Z,20.14
2022-08-26T10:32:59.304Z,20.19
2022-08-26T10:35:29.145Z,20.23
2022-08-26T10:38:05.748Z,20.42
2022-08-26T10:40:49.065Z,20.83
2022-08-26T10:43:23.750Z,20.64
2022-08-26T10:45:58.502Z,20.57
2022-08-26T10:48:35.424Z,20.60
2022-08-26T10:51:06.287Z,20.63
2022-08-26T10:53:47.106Z,20.69
2022-08-26T10:56:31.571Z,20.71
2022-08-26T10:59:10.342Z,20.49
2022-08-26T11:01:51.098Z,20.59
2022-08-26T11:04:45.768Z,20.52
2022-08-26T11:07:41.111Z,20.52
2022-08-26T11:11:03.532Z,20.57
2022-08-26T11:14:05.068Z,20.73
2022-08-26T11:16:42.940Z,20.84
2022-08-26T11:19:14.538Z,20.87
2022-08-26T11:21:50.918Z,20.80
2022-08-26T11:25:11.584Z,20.93
2022-08-26T11:27:57.151Z,20.82
2022-08-26T11:30:43.070Z,21.05
2022-08-26T11:33:37.878Z,21.02
2022-08-26T11:36:12.296Z,21.08
2022-08-26T11:38:44.026Z,21.18
2022-08-26T11:41:20.168Z,21.16
2022-08-26T11:43:52.440Z,21.15
2022-08-26T11:46:28.907Z,21.06
2022-08-26T11:49:05.473Z,20.94
2022-08-26T11:51:40.043Z,20.98
2022-08-26T11:54:12.628Z,20.97
2022-08-26T11:56:43.445Z,21.00
2022-08-26T12:01:50.510Z,20.85
2022-08-26T12:06:53.787Z,20.73
2022-08-26T12:09:22.945Z,20.80
2022-08-26T12:11:52.908Z,20.78
2022-08-26T12:14:27.954Z,20.88
2022-08-26T12:17:13.997Z,20.75
2022-08-26T12:19:43.010Z,20.74
2022-08-26T12:22:23.092Z,20.71
2022-08-26T12:24:54.886Z,20.59
2022-08-26T12:27:25.226Z,20.57
2022-08-26T12:30:09.835Z,20.73
2022-08-26T12:32:57.821Z,20.54
2022-08-26T12:35:29.387Z,20.57
2022-08-26T12:37:59.216Z,20.61
2022-08-26T12:40:39.668Z,20.67
2022-08-26T12:43:09.693Z,20.66
2022-08-26T12:45:41.975Z,20.78
2022-08-26T12:48:14.969Z,20.70
2022-08-26T12:50:50.270Z,20.85
2022-08-26T12:53:23.672Z,20.78
2022-08-26T12:55:55.710Z,20.80
2022-08-26T12:58:27.970Z,20.77
2022-08-26T13:00:59.416Z,20.65
2022-08-26T13:03:44.840Z,20.62
2022-08-26T13:06:30.165Z,20.64
2022-08-26T13:09:01.292Z,20.74
2022-08-26T13:11:32.151Z,20.72
2022-08-26T13:14:07.021Z,20.73
2022-08-26T13:16:36.943Z,20.78
2022-08-26T13:19:10.595Z,20.63
2022-08-26T13:21:45.229Z,20.67
2022-08-26T13:24:15.755Z,20.66
2022-08-26T13:26:46.598Z,20.59
2022-08-26T13:29:15.571Z,20.94
2022-08-26T13:31:46.009Z,20.78
2022-08-26T13:34:19.538Z,20.81
2022-08-26T13:36:48.812Z,20.81
2022-08-26T13:39:18.012Z,20.60
2022-08-26T13:41:46.929Z,20.69
2022-08-26T13:44:15.662Z,20.67
2022-08-26T13:49:20.033Z,20.85
2022-08-26T13:51:48.800Z,20.81
2022-08-26T13:54:17.433Z,21.04
2022-08-26T13:56:46.303Z,21.07
2022-08-26T13:59:15.118Z,21.06
2022-08-26T14:01:44.071Z,21.11
2022-08-26T14:04:12.764Z,21.03
2022-08-26T14:06:43.092Z,21.13
2022-08-26T14:09:11.844Z,21.25
2022-08-26T14:11:50.548Z,21.35
2022-08-26T14:14:24.156Z,21.33
2022-08-26T14:16:59.467Z,21.33
2022-08-26T14:19:30.296Z,21.35
2022-08-26T14:22:02.090Z,21.37
2022-08-26T14:24:31.275Z,21.43
2022-08-26T14:27:00.100Z,21.37
2022-08-26T14:29:29.083Z,21.40
2022-08-26T14:32:00.068Z,21.35
2022-08-26T14:34:28.818Z,21.43
2022-08-26T14:36:57.486Z,21.57
2022-08-26T14:39:38.415Z,21.49
2022-08-26T14:42:09.270Z,21.52
2022-08-26T14:44:38.433Z,21.60
2022-08-26T14:47:07.633Z,21.69
2022-08-26T14:49:36.713Z,21.64
2022-08-26T14:52:05.744Z,21.61
2022-08-26T14:54:33.416Z,21.58
2022-08-26T14:57:06.618Z,21.72
2022-08-26T14:59:36.790Z,21.72
2022-08-26T15:02:06.280Z,21.58
2022-08-26T15:04:35.218Z,21.50
2022-08-26T15:07:04.774Z,21.33
2022-08-26T15:09:36.629Z,21.38
2022-08-26T15:12:07.607Z,21.26
2022-08-26T15:14:36.271Z,21.34
2022-08-26T15:17:05.611Z,21.11
2022-08-26T15:19:34.307Z,21.25
2022-08-26T15:22:03.149Z,21.15
2022-08-26T15:24:32.262Z,20.95
2022-08-26T15:27:01.062Z,21.03
2022-08-26T15:29:31.588Z,20.88
2022-08-26T15:32:05.678Z,20.91
2022-08-26T15:34:34.356Z,20.80
2022-08-26T15:37:03.298Z,20.60
2022-08-26T15:39:32.180Z,20.68
2022-08-26T15:42:01.138Z,20.75
2022-08-26T15:44:31.414Z,20.70
2022-08-26T15:47:00.370Z,20.53
2022-08-26T15:49:29.116Z,20.56
2022-08-26T15:51:57.874Z,20.59
2022-08-26T15:54:26.757Z,20.58
2022-08-26T15:56:55.491Z,20.57
2022-08-26T15:59:24.605Z,20.58
2022-08-26T16:01:55.038Z,20.73
2022-08-26T16:04:23.824Z,20.74
2022-08-26T16:06:53.437Z,20.57
2022-08-26T16:09:27.194Z,20.78
2022-08-26T16:11:56.817Z,20.83
2022-08-26T16:14:26.055Z,20.67
2022-08-26T16:16:57.692Z,20.84
2022-08-26T16:19:26.545Z,20.81
2022-08-26T16:21:55.535Z,20.64
2022-08-26T16:24:29.702Z,20.57
2022-08-26T16:27:59.674Z,20.65
2022-08-26T16:30:29.151Z,20.43
2022-08-26T16:32:58.807Z,20.34
2022-08-26T16:41:13.678Z,20.13
2022-08-26T17:00:39.651Z,19.48
2022-08-26T17:03:08.670Z,19.36
2022-08-26T17:05:37.731Z,19.47
2022-08-26T17:08:07.202Z,19.44
2022-08-26T17:10:36.467Z,19.60
2022-08-26T17:13:05.312Z,19.73
2022-08-26T17:15:34.064Z,19.84
2022-08-26T17:18:04.327Z,19.91
2022-08-26T17:20:33.850Z,19.94
2022-08-26T17:23:02.599Z,19.92
2022-08-26T17:25:33.377Z,19.95
2022-08-26T17:28:02.250Z,19.72
2022-08-26T17:30:31.028Z,19.76
2022-08-26T17:33:00.124Z,19.73
2022-08-26T17:35:30.195Z,19.74
2022-08-26T17:37:59.994Z,19.72
2022-08-26T17:40:31.028Z,19.41
2022-08-26T17:43:00.315Z,18.95
2022-08-26T17:45:29.314Z,18.74
2022-08-26T17:47:58.042Z,18.54
2022-08-26T17:50:26.801Z,18.37
2022-08-26T17:52:57.124Z,18.25
2022-08-26T17:55:26.029Z,18.10
2022-08-26T17:57:54.689Z,18.00
2022-08-26T18:00:26.650Z,18.00
2022-08-26T18:02:55.555Z,17.80
2022-08-26T18:05:24.956Z,17.70
2022-08-26T18:07:53.693Z,17.59
2022-08-26T18:10:25.773Z,17.42
2022-08-26T18:12:54.753Z,17.35
2022-08-26T18:15:23.477Z,17.34
2022-08-26T18:17:52.212Z,17.30
2022-08-26T18:20:21.416Z,17.32
2022-08-26T18:22:50.218Z,17.35
2022-08-26T18:25:19.213Z,17.28
2022-08-26T18:27:49.855Z,17.24
2022-08-26T18:30:21.997Z,17.18
2022-08-26T18:32:51.093Z,17.20
2022-08-26T18:35:21.541Z,17.22
2022-08-26T18:37:50.233Z,17.22
2022-08-26T18:40:19.053Z,17.20
2022-08-26T18:42:49.296Z,17.23
2022-08-26T18:45:24.575Z,17.09
2022-08-26T18:47:53.382Z,17.09
2022-08-26T18:50:22.139Z,17.11
2022-08-26T18:52:50.915Z,17.07
2022-08-26T18:55:19.456Z,17.02
2022-08-26T18:57:48.073Z,17.06
2022-08-26T19:00:17.756Z,16.88
2022-08-26T19:02:51.733Z,16.87
2022-08-26T19:05:21.363Z,16.77
2022-08-26T19:07:49.926Z,16.76
2022-08-26T19:10:18.640Z,16.74
2022-08-26T19:12:47.079Z,16.70
2022-08-26T19:15:20.939Z,16.68
2022-08-26T19:17:50.942Z,16.56
2022-08-26T19:20:19.816Z,16.52
2022-08-26T19:22:48.313Z,16.58
2022-08-26T19:25:17.573Z,16.58
2022-08-26T19:27:46.173Z,16.80
2022-08-26T19:30:15.314Z,16.91
2022-08-26T19:32:43.895Z,16.87
2022-08-26T19:35:15.084Z,16.81
2022-08-26T19:37:43.714Z,16.63
2022-08-26T19:40:12.874Z,16.51
2022-08-26T19:42:41.575Z,16.43
2022-08-26T19:45:18.266Z,16.29
2022-08-26T19:47:54.382Z,16.22
2022-08-26T19:50:26.656Z,16.19
2022-08-26T19:52:55.434Z,16.23
2022-08-26T19:55:24.735Z,16.21
2022-08-26T19:57:54.003Z,16.14
2022-08-26T20:00:25.133Z,16.03
2022-08-26T20:02:54.218Z,16.03
2022-08-26T20:05:26.967Z,15.94
2022-08-26T20:07:56.799Z,16.00
2022-08-26T20:10:25.681Z,15.99
2022-08-26T20:12:54.357Z,15.92
2022-08-26T20:15:24.177Z,15.85
2022-08-26T20:17:52.908Z,15.77
2022-08-26T20:20:39.354Z,15.75
2022-08-26T20:23:09.924Z,15.81
2022-08-26T20:25:38.670Z,15.79
2022-08-26T20:28:07.321Z,15.68
2022-08-26T20:30:36.022Z,15.66
2022-08-26T20:33:04.683Z,15.57
2022-08-26T20:35:33.880Z,15.59
2022-08-26T20:38:02.584Z,15.62
2022-08-26T20:40:33.714Z,15.58
2022-08-26T20:43:02.468Z,15.53
2022-08-26T20:45:31.158Z,15.40
2022-08-26T20:47:59.942Z,15.32
2022-08-26T20:50:28.863Z,15.30
2022-08-26T20:52:57.583Z,15.31
2022-08-26T20:55:26.821Z,15.53
2022-08-26T20:57:57.140Z,15.92
2022-08-26T21:00:27.111Z,15.69
2022-08-26T21:02:57.842Z,15.46
2022-08-26T21:05:27.102Z,15.40
2022-08-26T21:07:56.260Z,15.49
2022-08-26T21:10:24.961Z,15.54
2022-08-26T21:12:54.640Z,15.62
2022-08-26T21:15:25.263Z,15.51
2022-08-26T21:17:54.082Z,15.57
2022-08-26T21:20:24.140Z,15.66
2022-08-26T21:22:53.283Z,15.74
2022-08-26T21:25:22.242Z,15.77
2022-08-26T21:27:50.920Z,15.85
2022-08-26T21:30:20.240Z,15.71
2022-08-26T21:32:50.721Z,15.57
2022-08-26T21:35:19.840Z,15.57
2022-08-26T21:37:48.672Z,15.56
2022-08-26T21:40:17.456Z,15.51
2022-08-26T21:42:46.240Z,15.37
2022-08-26T21:45:17.242Z,15.34
2022-08-26T21:47:47.002Z,15.47
2022-08-26T21:50:17.580Z,15.45
2022-08-26T21:52:46.482Z,15.41
2022-08-26T21:55:15.295Z,15.30
2022-08-26T21:57:44.102Z,15.30
2022-08-26T22:00:15.941Z,15.17
2022-08-26T22:02:44.927Z,15.11
2022-08-26T22:05:13.824Z,15.16
2022-08-26T22:07:44.280Z,15.22
2022-08-26T22:10:13.294Z,15.22
2022-08-26T22:12:42.083Z,15.23
2022-08-26T22:15:12.385Z,15.19
2022-08-26T22:17:41.443Z,15.12
2022-08-26T22:20:16.467Z,15.18
2022-08-26T22:22:47.156Z,15.12
2022-08-26T22:25:15.865Z,15.04
2022-08-26T22:27:44.682Z,15.10
2022-08-26T22:30:13.950Z,15.17
2022-08-26T22:32:44.141Z,15.16
2022-08-26T22:35:28.426Z,15.05
2022-08-26T22:38:00.863Z,15.07
2022-08-26T22:40:29.596Z,15.05
2022-08-26T22:43:00.049Z,14.95
2022-08-26T22:45:29.572Z,14.89
2022-08-26T22:47:58.864Z,14.78
2022-08-26T22:50:28.064Z,14.74
2022-08-26T22:52:56.883Z,14.85
2022-08-26T22:55:27.051Z,14.81
2022-08-26T22:57:55.845Z,14.75
2022-08-26T23:00:32.198Z,14.70
2022-08-26T23:03:02.210Z,14.61
2022-08-26T23:05:31.303Z,14.67
2022-08-26T23:08:00.783Z,14.71
2022-08-26T23:10:31.006Z,14.70
2022-08-26T23:12:59.905Z,14.56
2022-08-26T23:15:28.742Z,14.49
2022-08-26T23:18:09.699Z,14.59
2022-08-26T23:20:39.406Z,14.71
2022-08-26T23:23:08.519Z,14.58
2022-08-26T23:25:38.866Z,14.57
2022-08-26T23:28:10.540Z,14.61
2022-08-26T23:30:39.401Z,14.57
2022-08-26T23:33:08.136Z,14.56
2022-08-26T23:35:35.823Z,14.71
2022-08-26T23:38:07.056Z,14.74
2022-08-26T23:40:40.803Z,14.67
2022-08-26T23:43:11.682Z,14.44
2022-08-26T23:45:40.593Z,14.51
2022-08-26T23:48:09.480Z,14.49
2022-08-26T23:50:55.703Z,14.50
2022-08-26T23:53:24.584Z,14.44
2022-08-26T23:55:54.987Z,14.24
2022-08-26T23:58:24.023Z,14.15
